Terminal Aerodrome Forecast
Issued by NWS Mt. Holly, NJ

Current Version | Previous Version | Text Only | Print | Product List | Glossary On
Versions: 1 2 3 4 5 6 7 8 9 10 11 12 13
566
FTUS41 KPHI 201120
TAFACY
TAF
KACY 201120Z 2012/2112 22005KT P6SM SKC
     FM201300 24008KT P6SM SKC
     FM201700 25012G20KT P6SM SKC
     FM202100 25009KT P6SM SKC
     FM210100 28005KT P6SM SCT250=

USA.gov is the U.S. government's official web portal to all federal, state and local government web resources and services.